Time;durP1;ratioP1;P1;durP2;ratioP2;P2;SDS_P1;SDS_P2;PMS_P1;PMS_P2;Temp;Humidity;BMP_temperature;BMP_pressure;BME280_temperature;BME280_humidity;BME280_pressure;Samples;Min_cycle;Max_cycle;Signal;HPM_P1;HPM_P2
2021/09/17 00:02:34;;;;;;;0.98;0.60;;;;;;;21.10;69.66;100442.63;5100441;28;20051;-72
2021/09/17 00:05:19;;;;;;;3.75;0.50;;;;;;;21.06;68.62;100428.00;5099087;28;20059;-72
2021/09/17 00:08:05;;;;;;;3.95;0.40;;;;;;;20.85;70.03;100420.47;5110508;28;20046;-71
2021/09/17 00:10:49;;;;;;;0.90;0.45;;;;;;;20.89;69.69;100425.97;5120993;28;20438;-71
2021/09/17 00:13:35;;;;;;;1.73;0.65;;;;;;;21.01;70.75;100425.63;5119081;28;20411;-72
2021/09/17 00:16:20;;;;;;;2.38;0.75;;;;;;;21.05;70.69;100431.16;5120982;28;20066;-72
2021/09/17 00:19:05;;;;;;;1.05;0.60;;;;;;;21.24;69.64;100428.03;5093912;28;20039;-72
2021/09/17 00:21:50;;;;;;;2.28;0.65;;;;;;;21.33;68.99;100431.97;5100728;28;20518;-72
2021/09/17 00:24:35;;;;;;;3.05;0.60;;;;;;;21.29;69.14;100433.16;5100390;28;20518;-72
2021/09/17 00:27:20;;;;;;;5.65;0.80;;;;;;;21.59;68.66;100438.31;5095079;28;20047;-71
2021/09/17 00:30:06;;;;;;;3.25;0.85;;;;;;;21.43;68.37;100441.50;5100203;28;20403;-71
2021/09/17 00:32:51;;;;;;;2.33;0.70;;;;;;;21.23;69.88;100432.78;5096215;28;20051;-70
2021/09/17 00:35:36;;;;;;;1.42;0.60;;;;;;;21.23;70.04;100432.78;5099866;28;20047;-70
2021/09/17 00:38:21;;;;;;;1.80;0.70;;;;;;;21.05;70.74;100429.19;5095401;28;20046;-70
2021/09/17 00:41:06;;;;;;;4.47;1.00;;;;;;;21.17;70.08;100428.03;5099853;28;20514;-70
2021/09/17 00:43:51;;;;;;;2.75;0.70;;;;;;;21.13;71.07;100422.47;5100131;28;20046;-70
2021/09/17 00:46:37;;;;;;;4.95;0.95;;;;;;;21.56;69.54;100422.50;5104047;28;20066;-70
2021/09/17 00:49:23;;;;;;;3.47;0.70;;;;;;;21.45;69.20;100410.66;5120590;28;20391;-70
2021/09/17 00:52:08;;;;;;;3.15;0.90;;;;;;;21.40;69.52;100406.31;5120281;28;20109;-70
2021/09/17 00:54:53;;;;;;;3.20;0.80;;;;;;;21.90;68.37;100420.06;5120368;28;20057;-70
2021/09/17 00:57:38;;;;;;;1.02;0.70;;;;;;;21.97;67.50;100411.78;5107304;28;20051;-69
2021/09/17 01:00:23;;;;;;;2.78;1.30;;;;;;;22.06;67.06;100399.09;5099609;28;20054;-70
2021/09/17 01:03:08;;;;;;;4.22;1.08;;;;;;;22.20;66.96;100403.03;5099167;28;20054;-71
2021/09/17 01:05:53;;;;;;;2.35;0.90;;;;;;;21.99;67.59;100390.81;5097283;28;20125;-72
2021/09/17 01:08:39;;;;;;;1.95;1.30;;;;;;;22.21;66.92;100397.06;5109388;28;20176;-71
2021/09/17 01:11:24;;;;;;;4.38;0.95;;;;;;;22.00;67.38;100386.84;5119919;28;20501;-69
2021/09/17 01:14:10;;;;;;;4.50;1.08;;;;;;;22.01;67.47;100384.88;5119943;28;20062;-69
2021/09/17 01:16:54;;;;;;;6.78;1.45;;;;;;;22.36;66.75;100389.47;5119208;28;20066;-69
2021/09/17 01:19:39;;;;;;;4.28;1.10;;;;;;;22.57;65.70;100389.38;5119616;28;20042;-69
2021/09/17 01:22:24;;;;;;;4.95;1.00;;;;;;;22.75;65.19;100387.34;5119742;28;20055;-72
2021/09/17 01:25:15;;;;;;;5.60;1.10;;;;;;;22.94;64.28;100386.00;5119941;28;20051;-72
2021/09/17 01:27:59;;;;;;;3.97;0.80;;;;;;;22.94;64.21;100377.69;5115423;28;20062;-72
2021/09/17 01:30:44;;;;;;;8.18;1.20;;;;;;;22.94;64.02;100372.16;5119564;28;20046;-72
2021/09/17 01:33:29;;;;;;;5.57;1.02;;;;;;;22.97;63.98;100372.13;5114157;28;20051;-72
2021/09/17 01:36:14;;;;;;;4.20;1.50;;;;;;;22.60;64.13;100377.50;5119646;28;20047;-72
2021/09/17 01:39:00;;;;;;;2.10;1.15;;;;;;;22.68;64.83;100379.03;5093278;28;20047;-72
2021/09/17 01:41:47;;;;;;;3.60;1.02;;;;;;;22.82;64.48;100376.19;5095383;28;20411;-71
2021/09/17 01:44:39;;;;;;;2.60;0.80;;;;;;;22.69;64.34;100371.50;5098871;28;20066;-71
2021/09/17 01:47:24;;;;;;;3.33;0.85;;;;;;;22.46;64.82;100370.03;5101665;28;20058;-71
2021/09/17 01:50:09;;;;;;;5.25;0.68;;;;;;;22.05;66.02;100366.25;5119723;28;20063;-72
2021/09/17 01:52:53;;;;;;;1.27;0.50;;;;;;;22.24;65.83;100373.31;5119340;28;20046;-71
2021/09/17 01:55:38;;;;;;;2.72;0.82;;;;;;;21.96;66.39;100372.22;5100093;28;20097;-71
2021/09/17 01:58:23;;;;;;;1.90;0.85;;;;;;;21.57;68.19;100364.00;5094261;28;20047;-71
2021/09/17 02:01:08;;;;;;;1.70;0.60;;;;;;;21.95;67.63;100367.88;5093514;28;20110;-71
2021/09/17 02:03:53;;;;;;;2.15;0.70;;;;;;;22.01;67.03;100366.28;5099239;28;20047;-71
2021/09/17 02:06:38;;;;;;;4.65;0.75;;;;;;;21.76;67.08;100368.31;5099159;28;20055;-71
2021/09/17 02:09:23;;;;;;;4.15;0.70;;;;;;;21.65;67.35;100371.09;5098794;28;20051;-71
2021/09/17 02:12:09;;;;;;;2.15;0.80;;;;;;;21.58;68.20;100368.34;5098989;28;20071;-71
2021/09/17 02:14:53;;;;;;;2.17;0.70;;;;;;;21.41;69.20;100362.84;5095535;28;20067;-71
2021/09/17 02:17:39;;;;;;;3.33;0.90;;;;;;;21.20;69.77;100364.44;5096034;28;20047;-71
2021/09/17 02:20:23;;;;;;;3.25;0.73;;;;;;;21.37;69.14;100362.06;5098745;28;20051;-71
2021/09/17 02:23:09;;;;;;;1.55;0.70;;;;;;;21.89;68.27;100374.97;5096005;28;20055;-71
2021/09/17 02:25:53;;;;;;;3.60;0.90;;;;;;;21.93;67.58;100370.25;5098846;28;20043;-71
2021/09/17 02:28:38;;;;;;;4.90;0.88;;;;;;;22.05;66.95;100369.03;5091910;28;20059;-70
2021/09/17 02:31:23;;;;;;;2.45;0.52;;;;;;;21.91;67.62;100356.00;5097956;28;20046;-71
2021/09/17 02:34:08;;;;;;;1.95;0.60;;;;;;;22.01;67.28;100363.50;5098778;28;20051;-71
2021/09/17 02:36:53;;;;;;;1.23;0.75;;;;;;;22.04;67.26;100351.66;5109324;28;20062;-71
2021/09/17 02:39:38;;;;;;;3.60;0.60;;;;;;;22.06;67.00;100352.03;5116910;28;20086;-71
2021/09/17 02:43:32;;;;;;;7.43;0.50;;;;;;;21.85;67.64;100338.22;5116464;28;20046;-70
2021/09/17 02:46:24;;;;;;;1.13;0.43;;;;;;;22.10;66.91;100335.38;5063447;28;20067;-72
2021/09/17 02:49:10;;;;;;;2.70;0.82;;;;;;;22.41;66.32;100328.09;5092099;28;20055;-73
2021/09/17 02:52:00;;;;;;;3.53;0.73;;;;;;;22.54;65.33;100315.38;5099982;28;20101;-72
2021/09/17 02:54:46;;;;;;;1.20;0.77;;;;;;;22.06;66.17;100318.00;5094700;28;20047;-67
2021/09/17 02:57:35;;;;;;;34.00;5.78;;;;;;;21.93;67.15;100308.53;5098749;28;20106;-67
2021/09/17 03:00:27;;;;;;;36.65;6.65;;;;;;;21.74;68.19;100318.06;5101188;28;20534;-66
2021/09/17 03:03:16;;;;;;;5.93;1.60;;;;;;;21.54;69.16;100295.59;5102954;28;20055;-65
2021/09/17 03:06:04;;;;;;;3.40;0.90;;;;;;;21.44;69.72;100293.66;5096187;28;20043;-66
2021/09/17 03:08:49;;;;;;;3.17;1.10;;;;;;;21.33;70.66;100295.69;5096181;28;20051;-65
2021/09/17 03:11:34;;;;;;;4.22;1.15;;;;;;;21.20;70.96;100300.03;5097160;28;20071;-66
2021/09/17 03:14:18;;;;;;;3.00;1.00;;;;;;;21.12;72.15;100306.72;5095244;28;20047;-65
2021/09/17 03:17:03;;;;;;;2.67;1.10;;;;;;;21.23;71.01;100313.06;5114013;27;20050;-65
2021/09/17 03:19:48;;;;;;;5.03;1.35;;;;;;;21.24;71.08;100298.84;5126902;27;20047;-65
2021/09/17 03:22:33;;;;;;;6.07;1.40;;;;;;;21.19;71.29;100296.47;5094920;28;20059;-65
2021/09/17 03:25:18;;;;;;;3.03;1.42;;;;;;;21.20;71.11;100291.72;5099537;28;20051;-65
2021/09/17 03:28:04;;;;;;;5.10;2.00;;;;;;;21.15;71.33;100281.84;5108913;28;20055;-65
2021/09/17 03:30:49;;;;;;;3.38;1.45;;;;;;;21.23;71.54;100288.94;5098687;28;20046;-65
2021/09/17 03:33:34;;;;;;;10.75;1.35;;;;;;;21.06;72.68;100289.75;5095125;28;20431;-65
2021/09/17 03:36:18;;;;;;;5.07;1.15;;;;;;;21.19;72.04;100287.38;5096240;28;20046;-66
2021/09/17 03:39:03;;;;;;;8.20;1.02;;;;;;;21.36;71.57;100285.78;5112349;28;20054;-65
2021/09/17 03:41:49;;;;;;;2.67;0.90;;;;;;;21.73;70.50;100277.78;5116136;28;20059;-65
2021/09/17 03:44:34;;;;;;;7.93;1.20;;;;;;;22.20;67.82;100279.13;5102877;28;20047;-65
2021/09/17 03:47:18;;;;;;;6.57;1.23;;;;;;;22.41;67.04;100281.78;5110848;28;20442;-65
2021/09/17 03:50:05;;;;;;;3.35;1.90;;;;;;;22.09;67.75;100279.22;5099157;28;20412;-65
2021/09/17 03:52:50;;;;;;;3.72;1.67;;;;;;;21.84;68.80;100283.28;5097064;28;20139;-65
2021/09/17 03:55:35;;;;;;;5.10;1.83;;;;;;;21.62;69.84;100274.25;5098021;28;20051;-65
2021/09/17 03:58:20;;;;;;;3.45;1.63;;;;;;;21.49;70.49;100270.31;5096156;28;20451;-66
2021/09/17 04:01:05;;;;;;;7.20;2.15;;;;;;;21.51;71.19;100271.50;5096931;28;20047;-65
2021/09/17 04:03:49;;;;;;;3.47;1.30;;;;;;;21.97;69.15;100270.56;5095312;28;20070;-66
2021/09/17 04:06:34;;;;;;;5.38;1.55;;;;;;;21.88;68.86;100275.72;5098545;28;20051;-65
2021/09/17 04:09:19;;;;;;;4.82;1.70;;;;;;;21.88;69.13;100267.44;5093822;28;20047;-65
2021/09/17 04:12:04;;;;;;;4.75;1.98;;;;;;;21.47;70.83;100267.97;5096724;28;20153;-65
2021/09/17 04:14:49;;;;;;;3.22;1.42;;;;;;;21.56;70.60;100273.88;5099412;28;20051;-65
2021/09/17 04:17:34;;;;;;;5.47;1.25;;;;;;;21.97;69.00;100276.91;5100166;28;20055;-66
2021/09/17 04:20:19;;;;;;;6.63;1.63;;;;;;;22.26;67.92;100276.72;5115769;28;20435;-65
2021/09/17 04:23:03;;;;;;;3.30;1.40;;;;;;;22.04;68.68;100276.09;5114491;28;20510;-66
2021/09/17 04:25:49;;;;;;;6.00;1.38;;;;;;;22.37;67.31;100274.69;5116083;28;20046;-66
2021/09/17 04:28:34;;;;;;;7.45;1.25;;;;;;;22.41;67.01;100267.13;5105327;28;20062;-65
2021/09/17 04:31:19;;;;;;;6.70;2.40;;;;;;;21.87;68.47;100271.38;5112322;28;20042;-65
2021/09/17 04:34:04;;;;;;;7.28;3.13;;;;;;;21.10;71.75;100268.41;5107693;28;20051;-65
2021/09/17 04:36:49;;;;;;;18.95;3.45;;;;;;;20.24;76.90;100269.53;5101762;28;20050;-65
2021/09/17 04:39:34;;;;;;;6.78;2.50;;;;;;;19.68;79.45;100261.06;5095591;28;20047;-65
2021/09/17 04:42:19;;;;;;;4.75;2.53;;;;;;;19.50;81.43;100267.28;5105024;28;20411;-65
2021/09/17 04:45:05;;;;;;;6.10;3.10;;;;;;;19.22;82.23;100253.31;5115796;28;20046;-65
2021/09/17 04:47:50;;;;;;;6.82;3.30;;;;;;;18.90;84.14;100250.31;5096902;28;20526;-65
2021/09/17 04:50:35;;;;;;;7.80;2.58;;;;;;;18.75;85.75;100243.91;5097207;28;20403;-65
2021/09/17 04:53:19;;;;;;;7.65;3.42;;;;;;;18.96;85.72;100242.50;5095593;28;20047;-65
2021/09/17 04:56:04;;;;;;;6.72;3.58;;;;;;;18.96;85.76;100239.72;5094927;28;20071;-64
2021/09/17 04:58:49;;;;;;;5.85;3.25;;;;;;;19.09;84.59;100241.03;5103664;28;20075;-65
2021/09/17 05:01:35;;;;;;;8.40;3.90;;;;;;;18.97;84.75;100238.56;5096485;28;20043;-65
2021/09/17 05:04:20;;;;;;;21.20;3.83;;;;;;;19.22;84.52;100234.00;5093611;28;20063;-64
2021/09/17 05:07:05;;;;;;;11.10;3.60;;;;;;;19.57;82.26;100230.66;5104630;28;20047;-64
2021/09/17 05:09:50;;;;;;;7.03;2.33;;;;;;;19.97;79.56;100237.91;5100773;28;20600;-64
2021/09/17 05:12:41;;;;;;;6.22;3.17;;;;;;;20.30;78.41;100231.28;5101468;28;20069;-64
2021/09/17 05:15:26;;;;;;;4.15;2.50;;;;;;;20.47;76.51;100234.06;5137648;27;20054;-64
2021/09/17 05:18:11;;;;;;;11.43;2.83;;;;;;;20.75;75.71;100236.06;5116232;27;20062;-64
2021/09/17 05:20:56;;;;;;;6.97;1.95;;;;;;;21.10;73.84;100235.22;5094947;28;20046;-64
2021/09/17 05:23:41;;;;;;;9.65;2.67;;;;;;;21.42;71.66;100234.41;5117230;28;20062;-64
2021/09/17 05:26:26;;;;;;;6.75;2.20;;;;;;;21.70;70.51;100239.81;5107567;28;20073;-64
2021/09/17 05:29:11;;;;;;;8.75;2.47;;;;;;;21.77;70.36;100240.59;5105902;28;20043;-64
2021/09/17 05:31:56;;;;;;;4.05;2.08;;;;;;;21.84;69.59;100248.03;5117758;28;20047;-64
2021/09/17 05:34:41;;;;;;;5.18;2.10;;;;;;;21.90;69.21;100254.75;5113443;27;20050;-63
2021/09/17 05:37:25;;;;;;;7.72;2.60;;;;;;;22.00;68.71;100270.53;5095521;27;20054;-64
2021/09/17 05:40:11;;;;;;;10.20;2.30;;;;;;;21.98;68.38;100278.47;5100671;28;20506;-64
2021/09/17 05:42:56;;;;;;;10.85;1.83;;;;;;;22.09;68.21;100284.75;5095688;28;20055;-64
2021/09/17 05:45:41;;;;;;;8.27;1.35;;;;;;;22.18;67.69;100281.53;5108420;28;20227;-64
2021/09/17 05:48:26;;;;;;;4.60;1.40;;;;;;;22.28;66.93;100293.75;5114167;28;20050;-64
2021/09/17 05:51:11;;;;;;;6.85;1.80;;;;;;;22.35;66.83;100299.25;5116672;28;20062;-64
2021/09/17 05:53:56;;;;;;;8.25;1.48;;;;;;;22.37;66.62;100305.16;5115215;28;20074;-64
2021/09/17 05:56:42;;;;;;;11.60;1.25;;;;;;;22.44;66.30;100296.81;5118589;28;20054;-64
2021/09/17 05:59:27;;;;;;;6.07;1.75;;;;;;;22.45;66.61;100288.09;5116854;28;20050;-63
2021/09/17 06:02:15;;;;;;;2.38;1.52;;;;;;;22.45;66.66;100290.84;5114506;28;20066;-63
2021/09/17 06:05:00;;;;;;;7.93;3.55;;;;;;;22.45;66.45;100301.19;5112370;28;20074;-63
2021/09/17 06:07:45;;;;;;;4.28;3.22;;;;;;;22.43;66.87;100307.13;5116168;28;20050;-63
2021/09/17 06:10:32;;;;;;;6.32;3.22;;;;;;;22.45;66.87;100303.94;5114760;28;20050;-63
2021/09/17 06:13:17;;;;;;;5.45;3.60;;;;;;;22.47;66.64;100298.78;5112567;28;20047;-63
2021/09/17 06:16:02;;;;;;;6.97;4.00;;;;;;;22.55;66.67;100292.00;5116599;28;20054;-64
2021/09/17 06:18:47;;;;;;;6.63;4.35;;;;;;;22.58;66.39;100296.72;5113237;28;20055;-63
2021/09/17 06:21:33;;;;;;;11.32;5.85;;;;;;;22.60;66.81;100297.88;5112648;28;20058;-65
2021/09/17 06:24:17;;;;;;;9.40;5.80;;;;;;;22.59;66.66;100309.41;5116792;28;20071;-64
2021/09/17 06:27:03;;;;;;;7.00;5.00;;;;;;;22.61;66.62;100304.22;5115108;28;20530;-64
2021/09/17 06:29:47;;;;;;;9.32;5.80;;;;;;;22.59;66.70;100306.63;5113156;28;20062;-65
2021/09/17 06:32:32;;;;;;;9.60;5.97;;;;;;;22.65;66.58;100301.44;5117549;28;20050;-63
2021/09/17 06:35:17;;;;;;;6.47;5.78;;;;;;;22.71;66.44;100299.81;5118799;28;20066;-64
2021/09/17 06:38:02;;;;;;;14.35;6.32;;;;;;;22.67;66.49;100296.25;5117176;28;20553;-65
2021/09/17 06:40:46;;;;;;;10.70;6.47;;;;;;;22.70;66.45;100295.47;5120720;28;20039;-65
2021/09/17 06:43:32;;;;;;;15.27;6.90;;;;;;;22.75;66.56;100286.75;5118886;28;20454;-65
2021/09/17 06:46:17;;;;;;;9.48;6.90;;;;;;;22.77;66.46;100287.88;5116986;28;20051;-65
2021/09/17 06:49:01;;;;;;;;;;;;;;;22.79;66.24;100291.06;5116238;28;20054;-65
2021/09/17 06:51:47;;;;;;;10.75;7.03;;;;;;;22.81;66.38;100291.41;5119055;28;19912;-65
2021/09/17 06:54:32;;;;;;;11.82;6.80;;;;;;;22.89;65.88;100287.41;5116799;28;20415;-65
2021/09/17 06:57:18;;;;;;;12.55;7.50;;;;;;;22.86;65.96;100290.97;5120398;28;20042;-65
2021/09/17 07:00:03;;;;;;;12.13;7.80;;;;;;;22.91;66.06;100290.53;5118668;28;20066;-65
2021/09/17 07:02:48;;;;;;;13.68;8.20;;;;;;;22.95;65.71;100296.09;5116882;28;20054;-65
2021/09/17 07:05:33;;;;;;;10.35;7.85;;;;;;;22.89;66.06;100294.94;5122171;28;20046;-65
2021/09/17 07:08:21;;;;;;;22.65;8.63;;;;;;;22.91;66.04;100307.19;5117458;28;20148;-65
2021/09/17 07:11:05;;;;;;;12.63;7.15;;;;;;;22.93;65.86;100315.88;5116837;28;20050;-65
2021/09/17 07:13:50;;;;;;;11.23;7.55;;;;;;;23.01;65.65;100300.75;5120990;28;20403;-65
2021/09/17 07:16:35;;;;;;;10.65;7.15;;;;;;;22.98;65.84;100296.03;5119388;28;20066;-65
2021/09/17 07:19:21;;;;;;;11.85;7.30;;;;;;;23.01;65.63;100299.97;5117197;28;20047;-65
2021/09/17 07:22:07;;;;;;;12.52;7.30;;;;;;;23.02;65.63;100305.09;5114993;28;20043;-64
2021/09/17 07:24:51;;;;;;;12.07;7.25;;;;;;;22.89;66.22;100309.59;5119266;28;20661;-65
2021/09/17 07:27:36;;;;;;;9.60;7.57;;;;;;;23.00;65.68;100307.53;5116952;28;20050;-65
2021/09/17 07:30:23;;;;;;;10.77;6.85;;;;;;;23.08;65.47;100301.91;5115234;28;20046;-65
2021/09/17 07:33:08;;;;;;;10.07;7.18;;;;;;;23.13;65.33;100305.03;5116938;28;20051;-65
2021/09/17 07:35:54;;;;;;;11.75;7.85;;;;;;;23.14;65.25;100309.38;5116964;28;20085;-65
2021/09/17 07:38:38;;;;;;;12.48;7.45;;;;;;;23.11;65.35;100315.72;5111022;28;20062;-65
2021/09/17 07:41:23;;;;;;;9.40;7.38;;;;;;;23.09;65.67;100318.13;5098384;28;20059;-65
2021/09/17 07:44:08;;;;;;;14.57;8.65;;;;;;;23.00;66.26;100315.84;5096452;28;20055;-65
2021/09/17 07:46:52;;;;;;;;;;;;;;;23.03;65.95;100326.13;5095079;28;20047;-65
2021/09/17 07:49:37;;;;;;;10.38;7.43;;;;;;;23.01;66.26;100327.69;5099220;28;19912;-65
2021/09/17 07:52:22;;;;;;;13.38;7.53;;;;;;;23.04;66.02;100326.91;5096841;28;20055;-65
2021/09/17 07:55:08;;;;;;;13.52;7.85;;;;;;;23.01;66.29;100325.72;5095079;28;20055;-66
2021/09/17 07:57:53;;;;;;;10.80;7.50;;;;;;;23.14;65.55;100334.34;5097324;28;20071;-65
2021/09/17 08:00:38;;;;;;;11.38;7.82;;;;;;;23.25;65.33;100328.69;5096890;28;20518;-65
2021/09/17 08:03:29;;;;;;;17.67;10.60;;;;;;;23.05;67.19;100328.47;5094927;28;20050;-65
2021/09/17 08:06:14;;;;;;;13.50;8.43;;;;;;;23.25;65.65;100339.81;5098949;28;20047;-65
2021/09/17 08:08:59;;;;;;;14.80;8.52;;;;;;;23.30;65.36;100336.59;5093787;28;20055;-65
2021/09/17 08:11:44;;;;;;;11.38;8.20;;;;;;;23.29;65.64;100338.56;5094506;28;20043;-65
2021/09/17 08:14:29;;;;;;;13.02;7.97;;;;;;;23.31;65.63;100338.16;5098614;28;20047;-65
2021/09/17 08:17:14;;;;;;;13.15;8.93;;;;;;;23.36;65.52;100340.50;5097259;28;20066;-65
2021/09/17 08:19:59;;;;;;;13.73;8.55;;;;;;;23.33;65.90;100347.63;5094648;28;20329;-64
2021/09/17 08:22:44;;;;;;;11.82;8.52;;;;;;;23.33;65.71;100349.63;5099011;28;20075;-65
2021/09/17 08:25:29;;;;;;;19.02;7.90;;;;;;;23.36;65.55;100351.59;5097278;28;20538;-65
2021/09/17 08:28:14;;;;;;;12.88;8.00;;;;;;;23.39;65.34;100350.75;5093439;28;20067;-64
2021/09/17 08:31:01;;;;;;;12.77;7.60;;;;;;;23.37;65.25;100356.72;5099990;28;20051;-64
2021/09/17 08:33:47;;;;;;;15.52;7.70;;;;;;;23.44;64.88;100362.22;5094019;28;20051;-64
2021/09/17 08:36:34;;;;;;;15.52;8.23;;;;;;;23.45;64.91;100360.25;5094944;28;20051;-65
2021/09/17 08:39:19;;;;;;;11.88;8.23;;;;;;;23.51;64.66;100363.38;5099972;28;20051;-65
2021/09/17 08:42:07;;;;;;;15.82;8.07;;;;;;;23.47;64.69;100359.84;5096861;28;20047;-65
2021/09/17 08:44:52;;;;;;;18.70;9.30;;;;;;;23.49;64.52;100363.78;5094993;28;20063;-64
2021/09/17 08:47:38;;;;;;;12.45;7.68;;;;;;;23.54;64.56;100368.88;5097185;28;20051;-64
2021/09/17 08:50:25;;;;;;;21.52;10.43;;;;;;;23.52;63.79;100370.50;5096866;28;20063;-65
2021/09/17 08:53:14;;;;;;;13.68;7.60;;;;;;;23.51;64.19;100366.16;5094892;28;20040;-65
2021/09/17 08:56:00;;;;;;;14.93;7.95;;;;;;;23.56;64.20;100363.72;5097912;28;20046;-65
2021/09/17 08:58:47;;;;;;;14.70;8.80;;;;;;;23.58;63.77;100363.28;5093904;28;20051;-64
2021/09/17 09:01:36;;;;;;;15.23;8.57;;;;;;;23.68;63.80;100368.75;5094634;28;20043;-65
2021/09/17 09:04:30;;;;;;;12.32;7.40;;;;;;;23.76;63.35;100366.69;5098683;28;20110;-65
2021/09/17 09:07:15;;;;;;;14.63;8.02;;;;;;;23.69;62.76;100362.00;5096289;28;20070;-65
2021/09/17 09:10:12;;;;;;;18.08;9.75;;;;;;;23.61;62.24;100362.47;5093827;28;20510;-65
2021/09/17 09:13:00;;;;;;;13.48;9.07;;;;;;;23.69;63.14;100363.97;5097649;28;20055;-65
2021/09/17 09:15:45;;;;;;;15.27;8.60;;;;;;;23.73;63.09;100361.94;5095241;28;20506;-65
2021/09/17 09:18:31;;;;;;;13.13;8.93;;;;;;;23.72;63.06;100366.69;5093551;28;20050;-64
2021/09/17 09:21:27;;;;;;;15.10;8.27;;;;;;;23.80;63.00;100371.00;5097313;28;20039;-64
2021/09/17 09:24:16;;;;;;;13.15;8.05;;;;;;;23.78;62.82;100365.06;5094873;28;20059;-65
2021/09/17 09:27:22;;;;;;;13.55;8.23;;;;;;;23.78;62.83;100369.81;5092590;28;20047;-64
2021/09/17 09:30:07;;;;;;;13.23;8.00;;;;;;;23.76;63.14;100370.25;5095574;28;20519;-64
2021/09/17 09:32:52;;;;;;;13.55;8.23;;;;;;;23.81;62.96;100369.00;5094574;28;20051;-64
2021/09/17 09:35:38;;;;;;;14.73;8.32;;;;;;;23.85;62.65;100373.31;5092977;28;20047;-64
2021/09/17 09:38:40;;;;;;;12.32;7.90;;;;;;;23.92;62.23;100371.66;5094263;28;20063;-65
2021/09/17 09:41:27;;;;;;;13.93;8.27;;;;;;;23.92;62.35;100371.66;5111523;28;20047;-65
2021/09/17 09:44:15;;;;;;;14.48;7.97;;;;;;;23.94;62.35;100377.59;5112598;28;20058;-65
2021/09/17 09:47:02;;;;;;;13.23;8.82;;;;;;;23.85;60.99;100370.53;5116590;28;20498;-65
2021/09/17 09:50:09;;;;;;;11.40;7.22;;;;;;;24.01;61.79;100383.06;5096935;28;20515;-65
2021/09/17 09:53:00;;;;;;;21.55;8.43;;;;;;;24.01;62.09;100372.75;5106742;28;20047;-65
2021/09/17 09:55:47;;;;;;;14.50;7.13;;;;;;;24.06;61.43;100375.06;5101741;28;20043;-65
2021/09/17 09:58:33;;;;;;;12.00;6.97;;;;;;;23.99;60.65;100363.25;5099314;28;20066;-65
2021/09/17 10:01:22;;;;;;;13.13;5.97;;;;;;;24.11;60.52;100373.81;5099674;28;20082;-65
2021/09/17 10:04:07;;;;;;;15.32;7.60;;;;;;;24.15;60.76;100367.00;5101560;28;20063;-65
2021/09/17 10:07:04;;;;;;;12.65;5.88;;;;;;;24.21;60.45;100370.94;5104731;28;20043;-65
2021/09/17 10:09:49;;;;;;;11.20;7.65;;;;;;;24.20;59.88;100369.38;5101777;28;20050;-66
2021/09/17 10:12:34;;;;;;;14.15;6.15;;;;;;;24.23;59.95;100368.53;5111817;28;20046;-65
2021/09/17 10:15:19;;;;;;;14.23;8.05;;;;;;;24.26;59.48;100356.59;5117252;28;20510;-65
2021/09/17 10:18:05;;;;;;;15.52;7.50;;;;;;;24.36;59.36;100363.22;5119087;28;20066;-65
2021/09/17 10:20:50;;;;;;;8.23;4.75;;;;;;;24.42;59.13;100367.09;5118603;28;20046;-65
2021/09/17 10:23:38;;;;;;;8.23;5.57;;;;;;;24.48;59.04;100365.41;5116645;28;20047;-65
2021/09/17 10:26:23;;;;;;;9.85;4.65;;;;;;;24.56;58.59;100358.56;5120490;28;20070;-65
2021/09/17 10:29:09;;;;;;;9.70;6.22;;;;;;;24.58;58.67;100367.25;5118425;28;20050;-64
2021/09/17 10:31:59;;;;;;;11.98;7.40;;;;;;;24.49;58.68;100358.66;5120541;27;20402;-65
2021/09/17 10:34:45;;;;;;;14.30;7.95;;;;;;;24.51;58.90;100363.78;5120349;28;20050;-64
2021/09/17 10:37:48;;;;;;;12.73;6.63;;;;;;;24.49;59.64;100353.09;5118280;28;20070;-64
2021/09/17 10:40:43;;;;;;;10.18;5.30;;;;;;;24.56;59.31;100355.00;5122321;28;20062;-64
2021/09/17 10:43:38;;;;;;;16.20;6.10;;;;;;;24.64;59.29;100348.91;5119301;28;20050;-64
2021/09/17 10:46:23;;;;;;;9.88;6.63;;;;;;;24.64;59.57;100348.91;5097245;28;20046;-64
2021/09/17 10:49:08;;;;;;;8.45;4.78;;;;;;;24.66;59.06;100340.13;5110053;28;20055;-64
2021/09/17 10:51:53;;;;;;;10.10;5.53;;;;;;;24.73;58.63;100337.25;5108448;28;20055;-64
2021/09/17 10:54:38;;;;;;;11.82;6.22;;;;;;;24.71;58.63;100332.13;5108778;28;20058;-64
2021/09/17 10:57:23;;;;;;;13.23;8.30;;;;;;;24.74;60.05;100329.72;5120121;28;20047;-64
2021/09/17 11:00:08;;;;;;;13.98;7.72;;;;;;;24.74;60.21;100322.13;5118594;28;20066;-65
2021/09/17 11:02:53;;;;;;;11.13;6.90;;;;;;;24.84;59.93;100323.19;5120492;27;20557;-64
2021/09/17 11:05:38;;;;;;;11.77;6.65;;;;;;;24.86;59.56;100329.09;5139541;27;20058;-65
2021/09/17 11:08:43;;;;;;;;;;;;;;;24.93;58.61;100318.69;5138555;27;20533;-65
2021/09/17 11:11:33;;;;;;;13.23;7.15;;;;;;;24.98;58.48;100326.56;5136594;27;19911;-65
2021/09/17 11:14:20;;;;;;;14.50;8.52;;;;;;;25.22;57.80;100321.78;5140424;27;20046;-64
2021/09/17 11:17:05;;;;;;;13.90;7.72;;;;;;;25.25;56.97;100326.47;5107044;27;20051;-64
2021/09/17 11:19:57;;;;;;;14.63;9.02;;;;;;;25.50;56.05;100320.47;5110746;28;20046;-64
2021/09/17 11:23:04;;;;;;;12.50;7.25;;;;;;;25.67;55.02;100313.81;5117598;28;20062;-64
2021/09/17 11:25:57;;;;;;;14.82;8.30;;;;;;;25.68;55.36;100311.81;5107868;28;20050;-64
2021/09/17 11:28:42;;;;;;;12.75;7.85;;;;;;;25.70;55.05;100307.38;5114796;28;20047;-65
2021/09/17 11:31:32;;;;;;;12.50;7.65;;;;;;;25.92;54.30;100313.31;5114741;28;20506;-64
2021/09/17 11:34:19;;;;;;;11.50;7.43;;;;;;;25.93;54.93;100310.09;5113664;28;20535;-64
2021/09/17 11:37:04;;;;;;;6.63;5.05;;;;;;;25.75;54.63;100314.47;5117975;27;20073;-64
2021/09/17 11:39:51;;;;;;;14.07;7.32;;;;;;;25.59;54.99;100304.03;5116952;27;20327;-64
2021/09/17 11:42:36;;;;;;;8.55;5.35;;;;;;;25.62;54.98;100302.38;5112581;27;20035;-64
2021/09/17 11:45:23;;;;;;;9.07;5.43;;;;;;;25.54;55.28;100296.94;5118846;28;20070;-65
2021/09/17 11:48:17;;;;;;;8.98;5.60;;;;;;;25.51;55.55;100303.31;5114410;28;20109;-64
2021/09/17 11:51:10;;;;;;;11.98;5.65;;;;;;;25.48;55.42;100295.06;5114598;28;20042;-65
2021/09/17 11:53:56;;;;;;;11.40;5.13;;;;;;;25.49;55.41;100294.63;5118267;28;20046;-64
2021/09/17 11:57:01;;;;;;;7.88;5.43;;;;;;;25.60;55.29;100296.47;5114686;28;20644;-65
2021/09/17 11:59:46;;;;;;;8.75;5.68;;;;;;;25.60;55.45;100291.66;5110809;28;20058;-64
2021/09/17 12:02:31;;;;;;;13.65;6.70;;;;;;;25.81;54.38;100285.66;5115767;28;20039;-64
2021/09/17 12:05:25;;;;;;;9.60;5.55;;;;;;;25.80;53.96;100275.72;5110643;28;20050;-64
2021/09/17 12:08:11;;;;;;;13.37;7.87;;;;;;;25.75;54.36;100275.47;5115871;28;20038;-64
2021/09/17 12:11:01;;;;;;;13.32;7.40;;;;;;;26.04;52.67;100270.84;5113202;27;20067;-64
2021/09/17 12:13:54;;;;;;;7.95;5.28;;;;;;;25.96;53.33;100270.22;5109132;28;20047;-64
2021/09/17 12:16:45;;;;;;;9.40;4.50;;;;;;;25.93;53.51;100257.16;5116770;28;20395;-64
2021/09/17 12:19:30;;;;;;;15.77;9.32;;;;;;;26.10;51.84;100262.78;5111192;28;20038;-64
2021/09/17 12:22:29;;;;;;;10.30;6.63;;;;;;;26.23;52.37;100256.13;5108869;28;20042;-64
2021/09/17 12:25:17;;;;;;;10.38;5.82;;;;;;;26.22;52.11;100254.53;5117115;28;20054;-64
2021/09/17 12:28:05;;;;;;;7.85;5.55;;;;;;;26.10;52.58;100252.41;5114380;28;20062;-64
2021/09/17 12:30:51;;;;;;;10.32;5.13;;;;;;;26.11;52.51;100247.63;5112917;28;20050;-64
2021/09/17 12:33:36;;;;;;;9.07;4.97;;;;;;;26.05;52.97;100246.56;5114722;28;20047;-64
2021/09/17 12:36:20;;;;;;;8.48;5.10;;;;;;;26.03;52.93;100241.41;5120505;28;20047;-64
2021/09/17 12:39:07;;;;;;;11.57;6.07;;;;;;;26.06;53.16;100248.13;5113813;28;20062;-64
2021/09/17 12:42:06;;;;;;;7.10;4.15;;;;;;;26.03;53.08;100241.41;5120474;28;20047;-64
2021/09/17 12:45:00;;;;;;;6.97;4.15;;;;;;;25.85;53.33;100243.81;5120462;28;20055;-63
2021/09/17 12:47:54;;;;;;;10.70;5.47;;;;;;;25.76;53.88;100232.44;5117421;28;20043;-64
2021/09/17 12:50:44;;;;;;;11.48;6.80;;;;;;;25.77;54.07;100245.16;5120400;28;20062;-64
2021/09/17 12:53:34;;;;;;;13.80;6.50;;;;;;;25.84;54.19;100231.09;5120192;28;20043;-63